Terminal Aerodrome Forecast
Issued by NWS Blacksburg, VA

Home | Current Version | Previous Version | Text Only | Print | Product List | Glossary On
Versions: 1 2 3 4 5 6 7 8 9 10 11 12 13 14 15 16 17 18 19 20 21 22 23 24 25 26 27 28 29 30
569
FTUS41 KRNK 312344
TAFROA
TAF
KROA 312344Z 0100/0124 10007KT P6SM SCT050 SCT250
     FM010300 10004KT P6SM FEW060 BKN250
     FM010800 VRB03KT 6SM BR SCT025 BKN250
      TEMPO 0109/0112 BKN025
     FM011400 09006KT P6SM SCT040 SCT250
     FM012000 10007KT P6SM VCSH BKN050 BKN150=

USA.gov is the U.S. government's official web portal to all federal, state and local government web resources and services.